createdAt,value
2023-02-11T00:01:33.073Z,57.90
2023-02-11T00:04:02.040Z,38.20
2023-02-11T00:06:31.995Z,39.10
2023-02-11T00:09:00.637Z,26.90
2023-02-11T00:11:32.271Z,27.90
2023-02-11T00:14:03.034Z,49.90
2023-02-11T00:16:32.561Z,40.60
2023-02-11T00:19:02.454Z,44.40
2023-02-11T00:21:30.432Z,31.70
2023-02-11T00:24:01.772Z,38.30
2023-02-11T00:26:32.638Z,36.50
2023-02-11T00:29:01.954Z,39.90
2023-02-11T00:31:33.297Z,32.70
2023-02-11T00:34:01.341Z,25.30
2023-02-11T00:36:30.443Z,30.10
2023-02-11T00:38:59.372Z,24.60
2023-02-11T00:41:27.372Z,27.50
2023-02-11T00:43:55.495Z,25.40
2023-02-11T00:46:23.622Z,28.50
2023-02-11T00:48:53.425Z,25.00
2023-02-11T00:51:22.625Z,26.70
2023-02-11T00:53:52.471Z,27.00
2023-02-11T00:56:21.068Z,30.30
2023-02-11T00:58:48.823Z,33.00
2023-02-11T01:01:18.510Z,27.30
2023-02-11T01:03:47.132Z,30.40
2023-02-11T01:06:16.031Z,39.80
2023-02-11T01:08:44.502Z,27.00
2023-02-11T01:11:19.355Z,29.00
2023-02-11T01:13:48.772Z,29.90
2023-02-11T01:16:17.946Z,30.80
2023-02-11T01:18:47.313Z,36.10
2023-02-11T01:21:16.227Z,30.80
2023-02-11T01:23:44.246Z,26.10
2023-02-11T01:26:13.778Z,24.00
2023-02-11T01:28:41.844Z,24.80
2023-02-11T01:31:09.655Z,25.90
2023-02-11T01:33:37.704Z,23.80
2023-02-11T01:36:08.035Z,24.90
2023-02-11T01:38:36.755Z,23.40
2023-02-11T01:41:10.346Z,24.00
2023-02-11T01:43:47.524Z,23.10
2023-02-11T01:46:38.400Z,22.40
2023-02-11T01:49:14.896Z,24.50
2023-02-11T01:51:59.172Z,25.80
2023-02-11T01:54:50.721Z,22.80
2023-02-11T01:57:23.518Z,25.20
2023-02-11T02:00:07.272Z,22.80
2023-02-11T02:03:00.777Z,28.20
2023-02-11T02:05:35.107Z,26.60
2023-02-11T02:08:12.179Z,23.10
2023-02-11T02:10:44.605Z,22.50
2023-02-11T02:13:13.015Z,22.50
2023-02-11T02:15:58.309Z,24.00
2023-02-11T02:18:46.452Z,24.00
2023-02-11T02:21:44.879Z,24.90
2023-02-11T02:24:37.849Z,24.00
2023-02-11T02:27:30.175Z,24.20
2023-02-11T02:30:22.916Z,30.10
2023-02-11T02:33:28.666Z,24.80
2023-02-11T02:36:14.832Z,25.80
2023-02-11T02:38:55.728Z,26.90
2023-02-11T02:41:29.033Z,24.90
2023-02-11T02:43:56.823Z,25.30
2023-02-11T02:46:24.829Z,24.60
2023-02-11T02:48:54.563Z,30.60
2023-02-11T02:51:47.949Z,29.70
2023-02-11T02:54:24.971Z,24.90
2023-02-11T02:56:56.340Z,24.70
2023-02-11T02:59:27.187Z,27.00
2023-02-11T03:02:11.028Z,24.50
2023-02-11T03:05:04.161Z,24.50
2023-02-11T03:07:38.140Z,24.20
2023-02-11T03:10:24.295Z,24.70
2023-02-11T03:12:54.397Z,24.70
2023-02-11T03:15:25.493Z,33.00
2023-02-11T03:17:56.291Z,25.60
2023-02-11T03:20:24.274Z,25.10
2023-02-11T03:23:03.371Z,24.10
2023-02-11T03:25:37.485Z,22.00
2023-02-11T03:28:13.941Z,24.80
2023-02-11T03:30:50.211Z,25.90
2023-02-11T03:36:02.426Z,23.60
2023-02-11T03:38:35.142Z,25.10
2023-02-11T03:41:07.058Z,25.00
2023-02-11T03:43:40.935Z,23.40
2023-02-11T03:46:11.010Z,25.50
2023-02-11T03:48:46.074Z,31.00
2023-02-11T03:51:15.950Z,25.80
2023-02-11T03:53:47.226Z,26.00
2023-02-11T03:56:19.699Z,24.10
2023-02-11T03:58:49.243Z,31.50
2023-02-11T04:01:17.229Z,26.30
2023-02-11T04:03:45.240Z,26.20
2023-02-11T04:06:13.116Z,24.60
2023-02-11T04:08:41.035Z,27.00
2023-02-11T04:11:09.105Z,26.10
2023-02-11T04:13:37.005Z,26.30
2023-02-11T04:16:05.163Z,26.40
2023-02-11T04:18:33.110Z,30.20
2023-02-11T04:21:00.982Z,33.60
2023-02-11T04:23:29.320Z,26.70
2023-02-11T04:25:57.161Z,24.30
2023-02-11T04:28:26.955Z,26.90
2023-02-11T04:30:56.311Z,30.80
2023-02-11T04:33:24.981Z,25.50
2023-02-11T04:35:53.022Z,26.10
2023-02-11T04:38:23.978Z,26.10
2023-02-11T04:40:51.857Z,26.00
2023-02-11T04:43:19.853Z,27.80
2023-02-11T04:45:47.816Z,27.10
2023-02-11T04:48:15.880Z,28.70
2023-02-11T04:50:43.691Z,29.10
2023-02-11T04:53:11.721Z,28.30
2023-02-11T04:55:39.652Z,28.10
2023-02-11T04:58:07.609Z,27.30
2023-02-11T05:00:35.428Z,26.90
2023-02-11T05:03:03.392Z,28.70
2023-02-11T05:05:31.636Z,28.90
2023-02-11T05:07:59.453Z,27.90
2023-02-11T05:10:27.604Z,28.80
2023-02-11T05:12:56.190Z,30.10
2023-02-11T05:15:24.265Z,27.90
2023-02-11T05:17:52.182Z,29.50
2023-02-11T05:20:20.212Z,28.40
2023-02-11T05:22:48.503Z,31.70
2023-02-11T05:25:16.405Z,30.50
2023-02-11T05:27:44.272Z,29.50
2023-02-11T05:30:12.626Z,29.60
2023-02-11T05:32:40.498Z,29.70
2023-02-11T05:35:09.528Z,28.50
2023-02-11T05:37:37.386Z,29.40
2023-02-11T05:40:06.054Z,30.30
2023-02-11T05:42:34.099Z,29.20
2023-02-11T05:45:01.957Z,27.70
2023-02-11T05:47:30.155Z,28.70
2023-02-11T05:49:58.086Z,30.10
2023-02-11T05:52:26.023Z,31.80
2023-02-11T05:54:53.988Z,30.80
2023-02-11T05:57:21.822Z,29.00
2023-02-11T05:59:49.660Z,30.40
2023-02-11T06:02:17.763Z,30.60
2023-02-11T06:04:45.709Z,29.00
2023-02-11T06:07:13.811Z,30.00
2023-02-11T06:09:41.746Z,27.80
2023-02-11T06:12:09.574Z,30.80
2023-02-11T06:14:37.433Z,30.30
2023-02-11T06:17:05.378Z,32.00
2023-02-11T06:19:33.353Z,30.80
2023-02-11T06:22:01.261Z,31.60
2023-02-11T06:24:51.343Z,33.30
2023-02-11T06:27:19.069Z,30.30
2023-02-11T06:29:48.003Z,31.80
2023-02-11T06:32:36.996Z,31.70
2023-02-11T06:35:03.864Z,31.80
2023-02-11T06:37:31.797Z,31.00
2023-02-11T06:39:59.599Z,33.50
2023-02-11T06:42:27.581Z,31.50
2023-02-11T06:44:55.560Z,31.70
2023-02-11T06:47:23.380Z,32.30
2023-02-11T06:49:51.303Z,31.50
2023-02-11T06:52:19.193Z,31.80
2023-02-11T06:54:47.130Z,33.30
2023-02-11T06:57:15.094Z,31.50
2023-02-11T06:59:42.966Z,32.40
2023-02-11T07:02:11.146Z,32.70
2023-02-11T07:04:39.170Z,29.50
2023-02-11T07:07:07.102Z,33.20
2023-02-11T07:09:35.189Z,34.00
2023-02-11T07:12:03.335Z,30.60
2023-02-11T07:14:31.339Z,35.10
2023-02-11T07:16:59.253Z,34.40
2023-02-11T07:19:27.262Z,32.10
2023-02-11T07:21:55.272Z,32.70
2023-02-11T07:24:23.559Z,32.90
2023-02-11T07:26:51.622Z,33.90
2023-02-11T07:29:19.528Z,35.80
2023-02-11T07:31:47.534Z,32.30
2023-02-11T07:34:15.648Z,31.90
2023-02-11T07:36:46.467Z,59.20
2023-02-11T07:39:17.545Z,36.50
2023-02-11T07:41:47.874Z,33.50
2023-02-11T07:44:15.879Z,40.90
2023-02-11T07:46:45.255Z,35.20
2023-02-11T07:49:13.358Z,35.60
2023-02-11T07:51:43.073Z,38.00
2023-02-11T07:54:11.502Z,34.60
2023-02-11T07:56:39.415Z,42.60
2023-02-11T07:59:07.399Z,37.10
2023-02-11T08:01:35.307Z,35.00
2023-02-11T08:04:04.007Z,33.10
2023-02-11T08:06:34.015Z,31.60
2023-02-11T08:09:07.234Z,32.70
2023-02-11T08:11:35.725Z,32.90
2023-02-11T08:14:03.546Z,34.10
2023-02-11T08:16:34.259Z,35.20
2023-02-11T08:19:05.718Z,75.90
2023-02-11T08:21:33.674Z,57.50
2023-02-11T08:24:03.216Z,94.50
2023-02-11T08:26:34.771Z,53.20
2023-02-11T08:29:08.726Z,38.10
2023-02-11T08:31:40.105Z,45.30
2023-02-11T08:34:08.456Z,40.60
2023-02-11T08:36:38.395Z,36.50
2023-02-11T08:39:19.158Z,37.40
2023-02-11T08:41:50.907Z,36.20
2023-02-11T08:44:20.337Z,34.20
2023-02-11T08:46:49.715Z,75.60
2023-02-11T08:49:17.614Z,133.70
2023-02-11T08:51:46.250Z,87.50
2023-02-11T08:54:15.074Z,89.00
2023-02-11T08:56:43.890Z,61.40
2023-02-11T08:59:15.677Z,51.80
2023-02-11T09:01:44.437Z,66.60
2023-02-11T09:04:13.083Z,68.80
2023-02-11T09:06:41.031Z,63.30
2023-02-11T09:09:13.642Z,59.50
2023-02-11T09:11:43.699Z,50.10
2023-02-11T09:14:22.277Z,40.00
2023-02-11T09:16:51.840Z,52.70
2023-02-11T09:19:21.139Z,92.60
2023-02-11T09:21:49.182Z,150.00
2023-02-11T09:24:17.178Z,120.60
2023-02-11T09:26:45.472Z,147.00
2023-02-11T09:29:13.733Z,194.50
2023-02-11T09:31:41.909Z,181.30
2023-02-11T09:34:11.362Z,77.70
2023-02-11T09:36:40.867Z,60.80
2023-02-11T09:39:14.400Z,92.20
2023-02-11T09:42:11.654Z,89.80
2023-02-11T09:44:40.083Z,69.70
2023-02-11T09:47:29.246Z,69.50
2023-02-11T09:50:04.701Z,51.50
2023-02-11T09:52:40.251Z,60.20
2023-02-11T09:55:25.177Z,120.50
2023-02-11T09:57:53.452Z,66.80
2023-02-11T10:00:34.107Z,77.70
2023-02-11T10:03:26.883Z,105.80
2023-02-11T10:06:25.708Z,57.70
2023-02-11T10:09:27.142Z,52.30
2023-02-11T10:12:07.512Z,77.40
2023-02-11T10:14:50.648Z,78.80
2023-02-11T10:17:46.928Z,68.40
2023-02-11T10:20:23.710Z,70.90
2023-02-11T10:23:19.680Z,36.80
2023-02-11T10:25:53.006Z,76.00
2023-02-11T10:28:30.149Z,101.10
2023-02-11T10:31:16.056Z,71.20
2023-02-11T10:33:50.054Z,99.30
2023-02-11T10:36:19.552Z,76.90
2023-02-11T10:38:47.541Z,79.70
2023-02-11T10:41:28.845Z,67.70
2023-02-11T10:43:57.375Z,60.30
2023-02-11T10:46:31.594Z,103.30
2023-02-11T10:49:00.141Z,77.30
2023-02-11T10:51:30.262Z,56.70
2023-02-11T10:54:04.338Z,98.30
2023-02-11T10:56:37.158Z,51.30
2023-02-11T10:59:14.528Z,43.20
2023-02-11T11:01:47.217Z,46.40
2023-02-11T11:04:30.772Z,53.30
2023-02-11T11:07:23.680Z,72.80
2023-02-11T11:09:59.791Z,56.90
2023-02-11T11:12:40.308Z,71.80
2023-02-11T11:15:22.176Z,40.70
2023-02-11T11:17:52.112Z,30.70
2023-02-11T11:20:25.376Z,63.20
2023-02-11T11:23:09.382Z,74.10
2023-02-11T11:25:41.613Z,59.80
2023-02-11T11:28:24.151Z,36.80
2023-02-11T11:30:55.328Z,104.80
2023-02-11T11:33:28.179Z,152.50
2023-02-11T11:35:59.056Z,72.20
2023-02-11T11:38:31.896Z,53.90
2023-02-11T11:41:24.196Z,82.90
2023-02-11T11:43:59.196Z,69.40
2023-02-11T11:46:33.647Z,53.80
2023-02-11T11:49:23.596Z,67.50
2023-02-11T11:52:11.557Z,57.90
2023-02-11T11:54:43.621Z,52.50
2023-02-11T11:57:18.520Z,71.90
2023-02-11T11:59:46.505Z,56.00
2023-02-11T12:02:20.406Z,53.70
2023-02-11T12:05:02.867Z,52.40
2023-02-11T12:07:40.345Z,76.60
2023-02-11T12:10:14.214Z,61.70
2023-02-11T12:12:53.761Z,75.90
2023-02-11T12:15:41.490Z,57.30
2023-02-11T12:18:33.356Z,35.80
2023-02-11T12:21:01.182Z,44.60
2023-02-11T12:24:01.505Z,44.00
2023-02-11T12:27:17.778Z,54.40
2023-02-11T12:30:17.254Z,80.40
2023-02-11T12:32:59.456Z,44.50
2023-02-11T12:35:33.402Z,37.40
2023-02-11T12:38:40.045Z,41.70
2023-02-11T12:41:50.595Z,52.00
2023-02-11T12:44:47.062Z,99.10
2023-02-11T12:47:36.886Z,52.50
2023-02-11T12:50:22.977Z,39.80
2023-02-11T12:53:04.519Z,46.50
2023-02-11T12:55:40.213Z,47.60
2023-02-11T12:58:16.855Z,39.90
2023-02-11T13:00:55.887Z,54.30
2023-02-11T13:03:53.850Z,81.40
2023-02-11T13:07:02.853Z,69.40
2023-02-11T13:09:38.852Z,56.30
2023-02-11T13:14:59.794Z,71.50
2023-02-11T13:17:40.913Z,57.50
2023-02-11T13:20:38.410Z,65.50
2023-02-11T13:23:21.186Z,68.40
2023-02-11T13:26:10.088Z,44.20
2023-02-11T13:29:04.832Z,77.00
2023-02-11T13:31:32.936Z,75.10
2023-02-11T13:34:01.008Z,62.20
2023-02-11T13:36:32.865Z,71.80
2023-02-11T13:39:04.552Z,82.80
2023-02-11T13:41:36.754Z,33.20
2023-02-11T13:44:09.308Z,70.30
2023-02-11T13:47:00.049Z,63.30
2023-02-11T13:49:42.751Z,59.60
2023-02-11T13:52:25.535Z,42.00
2023-02-11T13:54:56.963Z,38.60
2023-02-11T13:57:33.090Z,52.10
2023-02-11T14:00:36.669Z,46.20
2023-02-11T14:03:29.194Z,54.80
2023-02-11T14:06:28.447Z,61.80
2023-02-11T14:09:10.314Z,43.30
2023-02-11T14:11:41.813Z,60.60
2023-02-11T14:14:21.923Z,62.20
2023-02-11T14:17:28.430Z,33.50
2023-02-11T14:19:57.265Z,53.00
2023-02-11T14:22:53.642Z,62.10
2023-02-11T14:25:26.683Z,56.90
2023-02-11T14:28:27.083Z,51.20
2023-02-11T14:31:14.904Z,117.20
2023-02-11T14:33:58.335Z,37.80
2023-02-11T14:36:43.892Z,53.40
2023-02-11T14:39:52.784Z,96.00
2023-02-11T14:42:26.655Z,50.20
2023-02-11T14:44:58.641Z,49.20
2023-02-11T14:47:35.661Z,90.00
2023-02-11T14:50:04.964Z,30.80
2023-02-11T14:52:37.379Z,28.90
2023-02-11T14:55:17.774Z,46.40
2023-02-11T14:57:49.502Z,45.50
2023-02-11T15:00:21.090Z,46.00
2023-02-11T15:02:49.563Z,68.40
2023-02-11T15:05:29.122Z,77.30
2023-02-11T15:08:02.039Z,32.60
2023-02-11T15:10:35.537Z,27.60
2023-02-11T15:13:05.492Z,29.80
2023-02-11T15:15:36.552Z,47.60
2023-02-11T15:18:05.373Z,38.90
2023-02-11T15:20:34.003Z,27.10
2023-02-11T15:23:07.899Z,108.00
2023-02-11T15:25:44.061Z,135.80
2023-02-11T15:30:57.969Z,82.20
2023-02-11T15:33:30.110Z,67.50
2023-02-11T15:36:02.466Z,116.50
2023-02-11T15:38:30.965Z,330.30
2023-02-11T15:41:02.202Z,102.50
2023-02-11T15:43:53.319Z,102.60
2023-02-11T15:46:23.430Z,88.70
2023-02-11T15:48:54.260Z,42.20
2023-02-11T15:51:39.979Z,75.40
2023-02-11T15:54:21.357Z,198.60
2023-02-11T15:56:51.744Z,201.90
2023-02-11T15:59:25.873Z,97.20
2023-02-11T16:01:55.701Z,71.90
2023-02-11T16:04:26.402Z,90.80
2023-02-11T16:06:55.694Z,83.10
2023-02-11T16:09:35.438Z,299.60
2023-02-11T16:12:23.623Z,74.30
2023-02-11T16:14:51.685Z,101.60
2023-02-11T16:17:19.592Z,93.70
2023-02-11T16:19:50.883Z,69.60
2023-02-11T16:22:30.332Z,41.80
2023-02-11T16:25:00.064Z,42.90
2023-02-11T16:27:41.706Z,30.70
2023-02-11T16:30:38.146Z,58.40
2023-02-11T16:33:06.400Z,68.00
2023-02-11T16:35:34.277Z,51.50
2023-02-11T16:38:02.225Z,48.20
2023-02-11T16:40:30.209Z,46.10
2023-02-11T16:42:58.212Z,63.20
2023-02-11T16:45:26.884Z,75.60
2023-02-11T16:47:54.908Z,22.50
2023-02-11T16:50:25.450Z,24.90
2023-02-11T16:52:53.778Z,26.60
2023-02-11T16:55:22.368Z,45.70
2023-02-11T16:57:50.525Z,44.30
2023-02-11T17:00:18.908Z,48.60
2023-02-11T17:02:46.843Z,78.40
2023-02-11T17:05:22.991Z,48.20
2023-02-11T17:10:22.295Z,26.20
2023-02-11T17:12:51.282Z,27.10
2023-02-11T17:15:19.267Z,49.80
2023-02-11T17:17:48.247Z,26.80
2023-02-11T17:20:16.618Z,28.70
2023-02-11T17:22:44.489Z,25.80
2023-02-11T17:25:12.596Z,20.80
2023-02-11T17:27:40.798Z,19.80
2023-02-11T17:30:10.059Z,23.90
2023-02-11T17:32:38.304Z,20.10
2023-02-11T17:35:07.366Z,23.80
2023-02-11T17:37:35.217Z,21.90
2023-02-11T17:40:03.309Z,39.40
2023-02-11T17:42:31.543Z,35.00
2023-02-11T17:44:59.375Z,30.20
2023-02-11T17:47:27.346Z,25.00
2023-02-11T17:49:55.272Z,20.70
2023-02-11T17:52:24.437Z,20.30
2023-02-11T17:54:52.262Z,23.30
2023-02-11T17:57:20.320Z,22.80
2023-02-11T17:59:48.226Z,17.40
2023-02-11T18:02:16.029Z,15.10
2023-02-11T18:04:44.088Z,16.70
2023-02-11T18:07:12.352Z,14.90
2023-02-11T18:09:41.090Z,16.70
2023-02-11T18:12:10.796Z,18.90
2023-02-11T18:14:40.795Z,14.60
2023-02-11T18:17:09.350Z,18.40
2023-02-11T18:19:37.716Z,18.00
2023-02-11T18:22:05.731Z,15.10
2023-02-11T18:24:33.687Z,34.70
2023-02-11T18:27:01.499Z,20.80
2023-02-11T18:29:29.806Z,17.90
2023-02-11T18:31:58.316Z,24.10
2023-02-11T18:34:26.546Z,19.70
2023-02-11T18:36:54.407Z,18.80
2023-02-11T18:39:24.339Z,22.70
2023-02-11T18:41:56.810Z,23.10
2023-02-11T18:44:26.685Z,17.50
2023-02-11T18:46:54.852Z,20.80
2023-02-11T18:49:22.849Z,15.50
2023-02-11T18:51:50.916Z,14.20
2023-02-11T18:54:18.905Z,13.50
2023-02-11T18:56:46.799Z,19.50
2023-02-11T18:59:15.194Z,15.60
2023-02-11T19:01:46.870Z,13.80
2023-02-11T19:04:19.833Z,14.90
2023-02-11T19:06:49.817Z,14.80
2023-02-11T19:09:20.540Z,16.80
2023-02-11T19:11:51.389Z,14.30
2023-02-11T19:14:31.974Z,10.70
2023-02-11T19:17:06.787Z,12.40
2023-02-11T19:19:36.345Z,13.50
2023-02-11T19:22:10.507Z,10.60
2023-02-11T19:24:39.301Z,18.10
2023-02-11T19:27:07.284Z,12.20
2023-02-11T19:29:35.520Z,11.50
2023-02-11T19:32:06.008Z,11.30
2023-02-11T19:34:41.235Z,11.00
2023-02-11T19:37:12.821Z,12.70
2023-02-11T19:39:42.463Z,15.40
2023-02-11T19:42:11.307Z,15.30
2023-02-11T19:44:39.349Z,11.50
2023-02-11T19:47:07.535Z,11.80
2023-02-11T19:49:35.366Z,10.10
2023-02-11T19:52:03.544Z,9.60
2023-02-11T19:54:31.550Z,10.10
2023-02-11T19:56:59.566Z,11.60
2023-02-11T19:59:27.623Z,12.00
2023-02-11T20:01:55.507Z,10.70
2023-02-11T20:04:25.200Z,11.90
2023-02-11T20:06:53.134Z,11.40
2023-02-11T20:09:21.859Z,11.70
2023-02-11T20:11:50.085Z,13.00
2023-02-11T20:14:18.250Z,10.60
2023-02-11T20:16:49.732Z,10.80
2023-02-11T20:19:21.677Z,11.10
2023-02-11T20:21:53.765Z,12.30
2023-02-11T20:24:22.616Z,10.70
2023-02-11T20:26:55.258Z,9.40
2023-02-11T20:29:24.584Z,10.10
2023-02-11T20:31:54.042Z,9.90
2023-02-11T20:34:22.573Z,10.00
2023-02-11T20:36:54.295Z,13.80
2023-02-11T20:39:25.297Z,11.10
2023-02-11T20:41:54.547Z,12.90
2023-02-11T20:44:23.232Z,10.00
2023-02-11T20:46:54.325Z,9.40
2023-02-11T20:49:24.478Z,12.80
2023-02-11T20:51:54.042Z,11.30
2023-02-11T20:54:24.355Z,10.50
2023-02-11T20:56:54.073Z,16.10
2023-02-11T20:59:22.993Z,12.90
2023-02-11T21:01:54.309Z,15.00
2023-02-11T21:04:25.618Z,12.80
2023-02-11T21:06:56.996Z,20.00
2023-02-11T21:09:28.577Z,13.00
2023-02-11T21:11:57.287Z,15.60
2023-02-11T21:14:26.167Z,10.90
2023-02-11T21:16:54.587Z,10.60
2023-02-11T21:19:22.535Z,9.90
2023-02-11T21:21:50.479Z,9.70
2023-02-11T21:24:18.534Z,11.90
2023-02-11T21:26:46.607Z,11.90
2023-02-11T21:29:14.527Z,13.90
2023-02-11T21:31:43.138Z,12.80
2023-02-11T21:34:11.251Z,11.60
2023-02-11T21:36:39.262Z,12.80
2023-02-11T21:39:07.557Z,14.40
2023-02-11T21:41:35.572Z,13.70
2023-02-11T21:44:03.443Z,17.60
2023-02-11T21:46:31.530Z,18.40
2023-02-11T21:49:00.531Z,14.40
2023-02-11T21:51:28.749Z,18.50
2023-02-11T21:53:59.796Z,16.60
2023-02-11T21:56:29.715Z,15.20
2023-02-11T21:58:59.644Z,18.30
2023-02-11T22:01:33.299Z,16.20
2023-02-11T22:04:01.249Z,13.70
2023-02-11T22:06:31.795Z,12.10
2023-02-11T22:09:04.678Z,11.70
2023-02-11T22:11:32.963Z,11.30
2023-02-11T22:14:00.910Z,14.80
2023-02-11T22:16:30.176Z,20.30
2023-02-11T22:18:59.069Z,16.90
2023-02-11T22:21:27.399Z,11.40
2023-02-11T22:23:56.342Z,14.00
2023-02-11T22:26:27.000Z,13.50
2023-02-11T22:28:55.358Z,14.70
2023-02-11T22:31:32.705Z,12.30
2023-02-11T22:34:01.742Z,14.30
2023-02-11T22:36:35.807Z,13.40
2023-02-11T22:39:10.725Z,12.80
2023-02-11T22:41:41.357Z,11.30
2023-02-11T22:44:09.943Z,16.70
2023-02-11T22:46:38.679Z,13.20
2023-02-11T22:49:07.563Z,12.00
2023-02-11T22:51:35.542Z,12.60
2023-02-11T22:54:06.480Z,12.90
2023-02-11T22:56:35.127Z,17.40
2023-02-11T22:59:08.249Z,13.50
2023-02-11T23:01:36.543Z,14.40
2023-02-11T23:04:06.819Z,15.70
2023-02-11T23:06:35.344Z,14.50
2023-02-11T23:09:08.517Z,11.90
2023-02-11T23:11:36.454Z,14.30
2023-02-11T23:14:04.461Z,11.90
2023-02-11T23:16:34.888Z,19.00
2023-02-11T23:19:06.121Z,24.20
2023-02-11T23:21:36.544Z,14.20
2023-02-11T23:24:11.616Z,15.50
2023-02-11T23:26:41.703Z,12.30
2023-02-11T23:29:11.222Z,13.90
2023-02-11T23:31:43.465Z,12.60
2023-02-11T23:34:12.840Z,13.90
2023-02-11T23:36:40.638Z,12.50
2023-02-11T23:39:08.623Z,11.90
2023-02-11T23:41:36.729Z,19.70
2023-02-11T23:44:04.772Z,14.20
2023-02-11T23:46:32.760Z,35.80
2023-02-11T23:49:00.551Z,22.00
2023-02-11T23:51:28.621Z,11.40
2023-02-11T23:53:56.830Z,20.80
2023-02-11T23:56:27.169Z,10.40
2023-02-11T23:58:58.442Z,18.40
